sensor_id;sensor_type;location;lat;lon;timestamp;temperature;humidity
16825;DHT22;8529;48.108;-1.706;2022-11-14T00:01:45;11.70;99.90
16825;DHT22;8529;48.108;-1.706;2022-11-14T00:04:12;11.70;99.90
16825;DHT22;8529;48.108;-1.706;2022-11-14T00:06:39;11.60;99.90
16825;DHT22;8529;48.108;-1.706;2022-11-14T00:09:06;11.60;99.90
16825;DHT22;8529;48.108;-1.706;2022-11-14T00:11:33;11.60;99.90
16825;DHT22;8529;48.108;-1.706;2022-11-14T00:14:00;11.60;99.90
16825;DHT22;8529;48.108;-1.706;2022-11-14T00:16:28;11.60;99.90
16825;DHT22;8529;48.108;-1.706;2022-11-14T00:18:55;11.60;99.90
16825;DHT22;8529;48.108;-1.706;2022-11-14T00:21:22;11.70;99.90
16825;DHT22;8529;48.108;-1.706;2022-11-14T00:23:49;11.70;99.90
16825;DHT22;8529;48.108;-1.706;2022-11-14T00:26:16;11.70;99.90
16825;DHT22;8529;48.108;-1.706;2022-11-14T00:28:42;11.70;99.90
16825;DHT22;8529;48.108;-1.706;2022-11-14T00:31:10;11.70;99.90
16825;DHT22;8529;48.108;-1.706;2022-11-14T00:33:38;11.70;99.90
16825;DHT22;8529;48.108;-1.706;2022-11-14T00:36:05;11.70;99.90
16825;DHT22;8529;48.108;-1.706;2022-11-14T00:38:32;11.70;99.90
16825;DHT22;8529;48.108;-1.706;2022-11-14T00:40:59;11.70;99.90
16825;DHT22;8529;48.108;-1.706;2022-11-14T00:43:26;11.70;99.90
16825;DHT22;8529;48.108;-1.706;2022-11-14T00:45:53;11.70;99.90
16825;DHT22;8529;48.108;-1.706;2022-11-14T00:48:19;11.70;99.90
16825;DHT22;8529;48.108;-1.706;2022-11-14T00:50:49;11.70;99.90
16825;DHT22;8529;48.108;-1.706;2022-11-14T00:53:16;11.60;99.90
16825;DHT22;8529;48.108;-1.706;2022-11-14T00:55:43;11.60;99.90
16825;DHT22;8529;48.108;-1.706;2022-11-14T00:58:09;11.60;99.90
16825;DHT22;8529;48.108;-1.706;2022-11-14T01:00:37;11.60;99.90
16825;DHT22;8529;48.108;-1.706;2022-11-14T01:03:04;11.50;99.90
16825;DHT22;8529;48.108;-1.706;2022-11-14T01:05:31;11.50;99.90
16825;DHT22;8529;48.108;-1.706;2022-11-14T01:07:59;11.50;99.90
16825;DHT22;8529;48.108;-1.706;2022-11-14T01:10:26;11.50;99.90
16825;DHT22;8529;48.108;-1.706;2022-11-14T01:12:53;11.40;99.90
16825;DHT22;8529;48.108;-1.706;2022-11-14T01:15:20;11.40;99.90
16825;DHT22;8529;48.108;-1.706;2022-11-14T01:17:46;11.40;99.90
16825;DHT22;8529;48.108;-1.706;2022-11-14T01:20:14;11.40;99.90
16825;DHT22;8529;48.108;-1.706;2022-11-14T01:22:41;11.40;99.90
16825;DHT22;8529;48.108;-1.706;2022-11-14T01:25:09;11.30;99.90
16825;DHT22;8529;48.108;-1.706;2022-11-14T01:27:36;11.40;99.90
16825;DHT22;8529;48.108;-1.706;2022-11-14T01:30:04;11.30;99.90
16825;DHT22;8529;48.108;-1.706;2022-11-14T01:32:31;11.30;99.90
16825;DHT22;8529;48.108;-1.706;2022-11-14T01:34:58;11.30;99.90
16825;DHT22;8529;48.108;-1.706;2022-11-14T01:37:25;11.30;99.90
16825;DHT22;8529;48.108;-1.706;2022-11-14T01:39:51;11.20;99.90
16825;DHT22;8529;48.108;-1.706;2022-11-14T01:42:20;11.20;99.90
16825;DHT22;8529;48.108;-1.706;2022-11-14T01:44:48;11.20;99.90
16825;DHT22;8529;48.108;-1.706;2022-11-14T01:47:20;11.20;99.90
16825;DHT22;8529;48.108;-1.706;2022-11-14T01:49:51;11.20;99.90
16825;DHT22;8529;48.108;-1.706;2022-11-14T01:52:21;11.20;99.90
16825;DHT22;8529;48.108;-1.706;2022-11-14T01:54:50;11.10;99.90
16825;DHT22;8529;48.108;-1.706;2022-11-14T01:57:22;11.10;99.90
16825;DHT22;8529;48.108;-1.706;2022-11-14T01:59:52;11.10;99.90
16825;DHT22;8529;48.108;-1.706;2022-11-14T02:02:21;11.10;99.90
16825;DHT22;8529;48.108;-1.706;2022-11-14T02:04:52;11.10;99.90
16825;DHT22;8529;48.108;-1.706;2022-11-14T02:07:22;11.10;99.90
16825;DHT22;8529;48.108;-1.706;2022-11-14T02:09:49;11.10;99.90
16825;DHT22;8529;48.108;-1.706;2022-11-14T02:12:17;11.10;99.90
16825;DHT22;8529;48.108;-1.706;2022-11-14T02:14:50;11.10;99.90
16825;DHT22;8529;48.108;-1.706;2022-11-14T02:17:18;11.10;99.90
16825;DHT22;8529;48.108;-1.706;2022-11-14T02:19:49;11.10;99.90
16825;DHT22;8529;48.108;-1.706;2022-11-14T02:22:18;11.10;99.90
16825;DHT22;8529;48.108;-1.706;2022-11-14T02:24:45;11.10;99.90
16825;DHT22;8529;48.108;-1.706;2022-11-14T02:27:13;11.10;99.90
16825;DHT22;8529;48.108;-1.706;2022-11-14T02:29:40;11.00;99.90
16825;DHT22;8529;48.108;-1.706;2022-11-14T02:32:08;11.10;99.90
16825;DHT22;8529;48.108;-1.706;2022-11-14T02:34:34;11.00;99.90
16825;DHT22;8529;48.108;-1.706;2022-11-14T02:37:01;11.00;99.90
16825;DHT22;8529;48.108;-1.706;2022-11-14T02:39:30;11.00;99.90
16825;DHT22;8529;48.108;-1.706;2022-11-14T02:41:57;11.00;99.90
16825;DHT22;8529;48.108;-1.706;2022-11-14T02:44:24;11.00;99.90
16825;DHT22;8529;48.108;-1.706;2022-11-14T02:46:51;11.00;99.90
16825;DHT22;8529;48.108;-1.706;2022-11-14T02:49:17;11.00;99.90
16825;DHT22;8529;48.108;-1.706;2022-11-14T02:51:44;11.00;99.90
16825;DHT22;8529;48.108;-1.706;2022-11-14T02:54:11;11.00;99.90
16825;DHT22;8529;48.108;-1.706;2022-11-14T02:56:40;11.00;99.90
16825;DHT22;8529;48.108;-1.706;2022-11-14T02:59:07;11.00;99.90
16825;DHT22;8529;48.108;-1.706;2022-11-14T03:01:33;10.90;99.90
16825;DHT22;8529;48.108;-1.706;2022-11-14T03:04:00;10.90;99.90
16825;DHT22;8529;48.108;-1.706;2022-11-14T03:06:27;10.90;99.90
16825;DHT22;8529;48.108;-1.706;2022-11-14T03:08:54;10.90;99.90
16825;DHT22;8529;48.108;-1.706;2022-11-14T03:11:21;10.90;99.90
16825;DHT22;8529;48.108;-1.706;2022-11-14T03:13:49;11.00;99.90
16825;DHT22;8529;48.108;-1.706;2022-11-14T03:16:16;10.90;99.90
16825;DHT22;8529;48.108;-1.706;2022-11-14T03:18:43;10.90;99.90
16825;DHT22;8529;48.108;-1.706;2022-11-14T03:21:12;10.90;99.90
16825;DHT22;8529;48.108;-1.706;2022-11-14T03:23:39;10.90;99.90
16825;DHT22;8529;48.108;-1.706;2022-11-14T03:26:08;10.90;99.90
16825;DHT22;8529;48.108;-1.706;2022-11-14T03:28:36;10.90;99.90
16825;DHT22;8529;48.108;-1.706;2022-11-14T03:31:05;10.90;99.90
16825;DHT22;8529;48.108;-1.706;2022-11-14T03:33:32;10.90;99.90
16825;DHT22;8529;48.108;-1.706;2022-11-14T03:35:59;10.90;99.90
16825;DHT22;8529;48.108;-1.706;2022-11-14T03:38:26;10.90;99.90
16825;DHT22;8529;48.108;-1.706;2022-11-14T03:40:53;11.00;99.90
16825;DHT22;8529;48.108;-1.706;2022-11-14T03:43:21;11.00;99.90
16825;DHT22;8529;48.108;-1.706;2022-11-14T03:45:47;10.90;99.90
16825;DHT22;8529;48.108;-1.706;2022-11-14T03:48:16;10.90;99.90
16825;DHT22;8529;48.108;-1.706;2022-11-14T03:50:43;10.80;99.90
16825;DHT22;8529;48.108;-1.706;2022-11-14T03:53:10;10.80;99.90
16825;DHT22;8529;48.108;-1.706;2022-11-14T03:55:37;10.80;99.90
16825;DHT22;8529;48.108;-1.706;2022-11-14T03:58:04;10.80;99.90
16825;DHT22;8529;48.108;-1.706;2022-11-14T04:00:31;10.80;99.90
16825;DHT22;8529;48.108;-1.706;2022-11-14T04:02:58;10.90;99.90
16825;DHT22;8529;48.108;-1.706;2022-11-14T04:05:26;10.90;99.90
16825;DHT22;8529;48.108;-1.706;2022-11-14T04:07:53;10.80;99.90
16825;DHT22;8529;48.108;-1.706;2022-11-14T04:10:21;10.80;99.90
16825;DHT22;8529;48.108;-1.706;2022-11-14T04:12:48;10.70;99.90
16825;DHT22;8529;48.108;-1.706;2022-11-14T04:15:16;10.70;99.90
16825;DHT22;8529;48.108;-1.706;2022-11-14T04:17:43;10.60;99.90
16825;DHT22;8529;48.108;-1.706;2022-11-14T04:20:11;10.70;99.90
16825;DHT22;8529;48.108;-1.706;2022-11-14T04:22:39;10.70;99.90
16825;DHT22;8529;48.108;-1.706;2022-11-14T04:25:07;10.80;99.90
16825;DHT22;8529;48.108;-1.706;2022-11-14T04:27:34;10.80;99.90
16825;DHT22;8529;48.108;-1.706;2022-11-14T04:30:02;10.80;99.90
16825;DHT22;8529;48.108;-1.706;2022-11-14T04:32:29;10.80;99.90
16825;DHT22;8529;48.108;-1.706;2022-11-14T04:34:56;10.80;99.90
16825;DHT22;8529;48.108;-1.706;2022-11-14T04:37:23;10.80;99.90
16825;DHT22;8529;48.108;-1.706;2022-11-14T04:39:51;10.80;99.90
16825;DHT22;8529;48.108;-1.706;2022-11-14T04:42:19;10.90;99.90
16825;DHT22;8529;48.108;-1.706;2022-11-14T04:44:45;10.80;99.90
16825;DHT22;8529;48.108;-1.706;2022-11-14T04:47:12;10.90;99.90
16825;DHT22;8529;48.108;-1.706;2022-11-14T04:49:39;10.80;99.90
16825;DHT22;8529;48.108;-1.706;2022-11-14T04:52:06;10.80;99.90
16825;DHT22;8529;48.108;-1.706;2022-11-14T04:54:33;10.90;99.90
16825;DHT22;8529;48.108;-1.706;2022-11-14T04:57:01;10.90;99.90
16825;DHT22;8529;48.108;-1.706;2022-11-14T04:59:28;11.00;99.90
16825;DHT22;8529;48.108;-1.706;2022-11-14T05:01:55;11.00;99.90
16825;DHT22;8529;48.108;-1.706;2022-11-14T05:04:22;11.10;99.90
16825;DHT22;8529;48.108;-1.706;2022-11-14T05:06:49;11.10;99.90
16825;DHT22;8529;48.108;-1.706;2022-11-14T05:09:16;11.10;99.90
16825;DHT22;8529;48.108;-1.706;2022-11-14T05:11:43;11.10;99.90
16825;DHT22;8529;48.108;-1.706;2022-11-14T05:14:11;11.10;99.90
16825;DHT22;8529;48.108;-1.706;2022-11-14T05:16:38;11.10;99.90
16825;DHT22;8529;48.108;-1.706;2022-11-14T05:19:05;11.10;99.90
16825;DHT22;8529;48.108;-1.706;2022-11-14T05:21:40;11.10;99.90
16825;DHT22;8529;48.108;-1.706;2022-11-14T05:24:07;11.10;99.90
16825;DHT22;8529;48.108;-1.706;2022-11-14T05:26:34;11.10;99.90
16825;DHT22;8529;48.108;-1.706;2022-11-14T05:29:01;11.20;99.90
16825;DHT22;8529;48.108;-1.706;2022-11-14T05:31:30;11.10;99.90
16825;DHT22;8529;48.108;-1.706;2022-11-14T05:33:57;11.10;99.90
16825;DHT22;8529;48.108;-1.706;2022-11-14T05:36:24;11.20;99.90
16825;DHT22;8529;48.108;-1.706;2022-11-14T05:38:50;11.20;99.90
16825;DHT22;8529;48.108;-1.706;2022-11-14T05:41:18;11.20;99.90
16825;DHT22;8529;48.108;-1.706;2022-11-14T05:43:45;11.30;99.90
16825;DHT22;8529;48.108;-1.706;2022-11-14T05:46:14;11.30;99.90
16825;DHT22;8529;48.108;-1.706;2022-11-14T05:48:43;11.30;99.90
16825;DHT22;8529;48.108;-1.706;2022-11-14T05:51:11;11.40;99.90
16825;DHT22;8529;48.108;-1.706;2022-11-14T05:53:38;11.40;99.90
16825;DHT22;8529;48.108;-1.706;2022-11-14T05:56:08;11.40;99.90
16825;DHT22;8529;48.108;-1.706;2022-11-14T05:58:36;11.40;99.90
16825;DHT22;8529;48.108;-1.706;2022-11-14T06:01:05;11.40;99.90
16825;DHT22;8529;48.108;-1.706;2022-11-14T06:03:33;11.40;99.90
16825;DHT22;8529;48.108;-1.706;2022-11-14T06:06:02;11.50;99.90
16825;DHT22;8529;48.108;-1.706;2022-11-14T06:08:30;11.50;99.90
16825;DHT22;8529;48.108;-1.706;2022-11-14T06:11:01;11.50;99.90
16825;DHT22;8529;48.108;-1.706;2022-11-14T06:13:29;11.50;99.90
16825;DHT22;8529;48.108;-1.706;2022-11-14T06:15:58;11.50;99.90
16825;DHT22;8529;48.108;-1.706;2022-11-14T06:18:25;11.50;99.90
16825;DHT22;8529;48.108;-1.706;2022-11-14T06:20:53;11.40;99.90
16825;DHT22;8529;48.108;-1.706;2022-11-14T06:23:21;11.40;99.90
16825;DHT22;8529;48.108;-1.706;2022-11-14T06:25:48;11.50;99.90
16825;DHT22;8529;48.108;-1.706;2022-11-14T06:28:15;11.50;99.90
16825;DHT22;8529;48.108;-1.706;2022-11-14T06:30:42;11.50;99.90
16825;DHT22;8529;48.108;-1.706;2022-11-14T06:33:08;11.50;99.90
16825;DHT22;8529;48.108;-1.706;2022-11-14T06:35:35;11.50;99.90
16825;DHT22;8529;48.108;-1.706;2022-11-14T06:38:02;11.50;99.90
16825;DHT22;8529;48.108;-1.706;2022-11-14T06:40:31;11.50;99.90
16825;DHT22;8529;48.108;-1.706;2022-11-14T06:42:57;11.50;99.90
16825;DHT22;8529;48.108;-1.706;2022-11-14T06:45:24;11.50;99.90
16825;DHT22;8529;48.108;-1.706;2022-11-14T06:47:51;11.50;99.90
16825;DHT22;8529;48.108;-1.706;2022-11-14T06:50:18;11.50;99.90
16825;DHT22;8529;48.108;-1.706;2022-11-14T06:52:45;11.50;99.90
16825;DHT22;8529;48.108;-1.706;2022-11-14T06:55:12;11.50;99.90
16825;DHT22;8529;48.108;-1.706;2022-11-14T06:57:40;11.50;99.90
16825;DHT22;8529;48.108;-1.706;2022-11-14T07:00:08;11.60;99.90
16825;DHT22;8529;48.108;-1.706;2022-11-14T07:02:35;11.60;99.90
16825;DHT22;8529;48.108;-1.706;2022-11-14T07:05:02;11.60;99.90
16825;DHT22;8529;48.108;-1.706;2022-11-14T07:07:29;11.60;99.90
16825;DHT22;8529;48.108;-1.706;2022-11-14T07:09:56;11.70;99.90
16825;DHT22;8529;48.108;-1.706;2022-11-14T07:12:23;11.70;99.90
16825;DHT22;8529;48.108;-1.706;2022-11-14T07:14:52;11.70;99.90
16825;DHT22;8529;48.108;-1.706;2022-11-14T07:17:18;11.70;99.90
16825;DHT22;8529;48.108;-1.706;2022-11-14T07:19:45;11.70;99.90
16825;DHT22;8529;48.108;-1.706;2022-11-14T07:22:12;11.70;99.90
16825;DHT22;8529;48.108;-1.706;2022-11-14T07:24:39;11.70;99.90
16825;DHT22;8529;48.108;-1.706;2022-11-14T07:27:06;11.70;99.90
16825;DHT22;8529;48.108;-1.706;2022-11-14T07:29:36;11.70;99.90
16825;DHT22;8529;48.108;-1.706;2022-11-14T07:32:05;11.70;99.90
16825;DHT22;8529;48.108;-1.706;2022-11-14T07:34:32;11.70;99.90
16825;DHT22;8529;48.108;-1.706;2022-11-14T07:36:59;11.70;99.90
16825;DHT22;8529;48.108;-1.706;2022-11-14T07:39:26;11.70;99.90
16825;DHT22;8529;48.108;-1.706;2022-11-14T07:41:52;11.70;99.90
16825;DHT22;8529;48.108;-1.706;2022-11-14T07:44:19;11.70;99.90
16825;DHT22;8529;48.108;-1.706;2022-11-14T07:46:46;11.70;99.90
16825;DHT22;8529;48.108;-1.706;2022-11-14T07:49:16;11.70;99.90
16825;DHT22;8529;48.108;-1.706;2022-11-14T07:51:42;11.70;99.90
16825;DHT22;8529;48.108;-1.706;2022-11-14T07:54:10;11.70;99.90
16825;DHT22;8529;48.108;-1.706;2022-11-14T07:56:37;11.70;99.90
16825;DHT22;8529;48.108;-1.706;2022-11-14T07:59:04;11.70;99.90
16825;DHT22;8529;48.108;-1.706;2022-11-14T08:01:31;11.70;99.90
16825;DHT22;8529;48.108;-1.706;2022-11-14T08:03:58;11.70;99.90
16825;DHT22;8529;48.108;-1.706;2022-11-14T08:06:26;11.70;99.90
16825;DHT22;8529;48.108;-1.706;2022-11-14T08:08:53;11.70;99.90
16825;DHT22;8529;48.108;-1.706;2022-11-14T08:11:20;11.70;99.90
16825;DHT22;8529;48.108;-1.706;2022-11-14T08:14:07;11.70;99.90
16825;DHT22;8529;48.108;-1.706;2022-11-14T08:16:34;11.70;99.90
16825;DHT22;8529;48.108;-1.706;2022-11-14T08:19:01;11.80;99.90
16825;DHT22;8529;48.108;-1.706;2022-11-14T08:21:29;11.80;99.90
16825;DHT22;8529;48.108;-1.706;2022-11-14T08:23:56;11.70;99.90
16825;DHT22;8529;48.108;-1.706;2022-11-14T08:26:23;11.70;99.90
16825;DHT22;8529;48.108;-1.706;2022-11-14T08:28:51;11.80;99.90
16825;DHT22;8529;48.108;-1.706;2022-11-14T08:31:20;11.70;99.90
16825;DHT22;8529;48.108;-1.706;2022-11-14T08:33:47;11.80;99.90
16825;DHT22;8529;48.108;-1.706;2022-11-14T08:36:15;11.80;99.90
16825;DHT22;8529;48.108;-1.706;2022-11-14T08:38:43;11.80;99.90
16825;DHT22;8529;48.108;-1.706;2022-11-14T08:41:10;11.80;99.90
16825;DHT22;8529;48.108;-1.706;2022-11-14T08:43:37;11.80;99.90
16825;DHT22;8529;48.108;-1.706;2022-11-14T08:46:04;11.80;99.90
16825;DHT22;8529;48.108;-1.706;2022-11-14T08:48:31;11.80;99.90
16825;DHT22;8529;48.108;-1.706;2022-11-14T08:51:02;11.80;99.90
16825;DHT22;8529;48.108;-1.706;2022-11-14T08:53:29;11.80;99.90
16825;DHT22;8529;48.108;-1.706;2022-11-14T08:55:58;11.80;99.90
16825;DHT22;8529;48.108;-1.706;2022-11-14T08:58:27;11.80;99.90
16825;DHT22;8529;48.108;-1.706;2022-11-14T09:00:58;11.90;99.90
16825;DHT22;8529;48.108;-1.706;2022-11-14T09:03:25;11.90;99.90
16825;DHT22;8529;48.108;-1.706;2022-11-14T09:05:53;11.90;99.90
16825;DHT22;8529;48.108;-1.706;2022-11-14T09:08:19;11.90;99.90
16825;DHT22;8529;48.108;-1.706;2022-11-14T09:10:47;12.00;99.90
16825;DHT22;8529;48.108;-1.706;2022-11-14T09:13:15;12.00;99.90
16825;DHT22;8529;48.108;-1.706;2022-11-14T09:15:43;12.00;99.90
16825;DHT22;8529;48.108;-1.706;2022-11-14T09:18:11;12.10;99.90
16825;DHT22;8529;48.108;-1.706;2022-11-14T09:20:38;12.10;99.90
16825;DHT22;8529;48.108;-1.706;2022-11-14T09:23:05;12.10;99.90
16825;DHT22;8529;48.108;-1.706;2022-11-14T09:25:32;12.20;99.90
16825;DHT22;8529;48.108;-1.706;2022-11-14T09:28:03;12.30;99.90
16825;DHT22;8529;48.108;-1.706;2022-11-14T09:30:33;12.30;99.90
16825;DHT22;8529;48.108;-1.706;2022-11-14T09:33:00;12.30;99.90
16825;DHT22;8529;48.108;-1.706;2022-11-14T09:35:27;12.40;99.90
16825;DHT22;8529;48.108;-1.706;2022-11-14T09:38:01;12.40;99.90
16825;DHT22;8529;48.108;-1.706;2022-11-14T09:40:29;12.40;99.90
16825;DHT22;8529;48.108;-1.706;2022-11-14T09:43:12;12.50;99.90
16825;DHT22;8529;48.108;-1.706;2022-11-14T09:45:48;12.50;99.90
16825;DHT22;8529;48.108;-1.706;2022-11-14T09:48:19;12.50;99.90
16825;DHT22;8529;48.108;-1.706;2022-11-14T09:50:52;12.50;99.90
16825;DHT22;8529;48.108;-1.706;2022-11-14T09:53:27;12.50;99.90
16825;DHT22;8529;48.108;-1.706;2022-11-14T09:55:57;12.50;99.90
16825;DHT22;8529;48.108;-1.706;2022-11-14T09:58:25;12.50;99.90
16825;DHT22;8529;48.108;-1.706;2022-11-14T10:00:57;12.50;99.90
16825;DHT22;8529;48.108;-1.706;2022-11-14T10:03:35;12.50;99.90
16825;DHT22;8529;48.108;-1.706;2022-11-14T10:06:20;12.50;99.90
16825;DHT22;8529;48.108;-1.706;2022-11-14T10:09:00;12.50;99.90
16825;DHT22;8529;48.108;-1.706;2022-11-14T10:11:32;12.50;99.90
16825;DHT22;8529;48.108;-1.706;2022-11-14T10:14:29;12.50;99.90
16825;DHT22;8529;48.108;-1.706;2022-11-14T10:17:13;12.50;99.90
16825;DHT22;8529;48.108;-1.706;2022-11-14T10:19:47;12.60;99.90
16825;DHT22;8529;48.108;-1.706;2022-11-14T10:22:26;12.60;99.90
16825;DHT22;8529;48.108;-1.706;2022-11-14T10:25:12;12.60;99.90
16825;DHT22;8529;48.108;-1.706;2022-11-14T10:27:44;12.70;99.90
16825;DHT22;8529;48.108;-1.706;2022-11-14T10:30:16;12.70;99.90
16825;DHT22;8529;48.108;-1.706;2022-11-14T10:33:04;12.80;99.90
16825;DHT22;8529;48.108;-1.706;2022-11-14T10:35:37;12.80;99.90
16825;DHT22;8529;48.108;-1.706;2022-11-14T10:38:11;12.90;99.90
16825;DHT22;8529;48.108;-1.706;2022-11-14T10:40:41;12.90;99.90
16825;DHT22;8529;48.108;-1.706;2022-11-14T10:43:20;12.90;99.90
16825;DHT22;8529;48.108;-1.706;2022-11-14T10:45:52;13.00;99.90
16825;DHT22;8529;48.108;-1.706;2022-11-14T10:48:28;13.10;99.90
16825;DHT22;8529;48.108;-1.706;2022-11-14T10:50:58;13.10;99.90
16825;DHT22;8529;48.108;-1.706;2022-11-14T10:53:37;13.20;99.90
16825;DHT22;8529;48.108;-1.706;2022-11-14T10:56:09;13.30;99.90
16825;DHT22;8529;48.108;-1.706;2022-11-14T10:58:37;13.40;99.90
16825;DHT22;8529;48.108;-1.706;2022-11-14T11:01:35;13.30;99.90
16825;DHT22;8529;48.108;-1.706;2022-11-14T11:04:19;13.30;99.90
16825;DHT22;8529;48.108;-1.706;2022-11-14T11:06:48;13.30;99.90
16825;DHT22;8529;48.108;-1.706;2022-11-14T11:09:17;13.30;99.90
16825;DHT22;8529;48.108;-1.706;2022-11-14T11:12:03;13.30;99.90
16825;DHT22;8529;48.108;-1.706;2022-11-14T11:14:31;13.30;99.90
16825;DHT22;8529;48.108;-1.706;2022-11-14T11:17:14;13.30;99.90
16825;DHT22;8529;48.108;-1.706;2022-11-14T11:19:44;13.30;99.90
16825;DHT22;8529;48.108;-1.706;2022-11-14T11:22:34;13.30;99.90
16825;DHT22;8529;48.108;-1.706;2022-11-14T11:25:01;13.30;99.90
16825;DHT22;8529;48.108;-1.706;2022-11-14T11:27:29;13.20;99.90
16825;DHT22;8529;48.108;-1.706;2022-11-14T11:30:17;13.30;99.90
16825;DHT22;8529;48.108;-1.706;2022-11-14T11:32:44;13.30;99.90
16825;DHT22;8529;48.108;-1.706;2022-11-14T11:35:14;13.40;99.90
16825;DHT22;8529;48.108;-1.706;2022-11-14T11:37:47;13.40;99.90
16825;DHT22;8529;48.108;-1.706;2022-11-14T11:40:20;13.40;99.90
16825;DHT22;8529;48.108;-1.706;2022-11-14T11:42:54;13.40;99.90
16825;DHT22;8529;48.108;-1.706;2022-11-14T11:45:23;13.40;99.90
16825;DHT22;8529;48.108;-1.706;2022-11-14T11:47:54;13.50;99.90
16825;DHT22;8529;48.108;-1.706;2022-11-14T11:50:24;13.50;99.90
16825;DHT22;8529;48.108;-1.706;2022-11-14T11:53:00;13.50;99.90
16825;DHT22;8529;48.108;-1.706;2022-11-14T11:55:32;13.50;99.90
16825;DHT22;8529;48.108;-1.706;2022-11-14T11:58:04;13.50;99.90
16825;DHT22;8529;48.108;-1.706;2022-11-14T12:00:32;13.60;99.90
16825;DHT22;8529;48.108;-1.706;2022-11-14T12:02:59;13.60;99.90
16825;DHT22;8529;48.108;-1.706;2022-11-14T12:05:36;13.60;99.90
16825;DHT22;8529;48.108;-1.706;2022-11-14T12:08:13;13.50;99.90
16825;DHT22;8529;48.108;-1.706;2022-11-14T12:10:43;13.50;99.90
16825;DHT22;8529;48.108;-1.706;2022-11-14T12:13:44;13.50;99.90
16825;DHT22;8529;48.108;-1.706;2022-11-14T12:16:26;13.50;99.90
16825;DHT22;8529;48.108;-1.706;2022-11-14T12:19:29;13.60;99.90
16825;DHT22;8529;48.108;-1.706;2022-11-14T12:22:16;13.70;99.90
16825;DHT22;8529;48.108;-1.706;2022-11-14T12:25:15;13.80;99.90
16825;DHT22;8529;48.108;-1.706;2022-11-14T12:27:59;13.90;99.90
16825;DHT22;8529;48.108;-1.706;2022-11-14T12:30:29;13.90;99.90
16825;DHT22;8529;48.108;-1.706;2022-11-14T12:32:59;13.90;99.90
16825;DHT22;8529;48.108;-1.706;2022-11-14T12:35:30;13.90;99.90
16825;DHT22;8529;48.108;-1.706;2022-11-14T12:38:00;13.90;99.90
16825;DHT22;8529;48.108;-1.706;2022-11-14T12:40:30;13.90;99.90
16825;DHT22;8529;48.108;-1.706;2022-11-14T12:42:59;14.00;99.90
16825;DHT22;8529;48.108;-1.706;2022-11-14T12:45:58;14.00;99.90
16825;DHT22;8529;48.108;-1.706;2022-11-14T12:48:30;14.10;99.90
16825;DHT22;8529;48.108;-1.706;2022-11-14T12:50:59;14.00;99.90
16825;DHT22;8529;48.108;-1.706;2022-11-14T12:53:45;14.00;99.90
16825;DHT22;8529;48.108;-1.706;2022-11-14T12:59:31;14.10;99.90
16825;DHT22;8529;48.108;-1.706;2022-11-14T13:02:33;14.10;99.90
16825;DHT22;8529;48.108;-1.706;2022-11-14T13:05:22;14.00;99.90
16825;DHT22;8529;48.108;-1.706;2022-11-14T13:08:06;14.00;99.90
16825;DHT22;8529;48.108;-1.706;2022-11-14T13:10:38;13.90;99.90
16825;DHT22;8529;48.108;-1.706;2022-11-14T13:13:08;13.90;99.90
16825;DHT22;8529;48.108;-1.706;2022-11-14T13:15:55;13.90;99.90
16825;DHT22;8529;48.108;-1.706;2022-11-14T13:18:54;13.90;99.90
16825;DHT22;8529;48.108;-1.706;2022-11-14T13:25:19;13.90;99.90
16825;DHT22;8529;48.108;-1.706;2022-11-14T13:27:48;13.80;99.90
16825;DHT22;8529;48.108;-1.706;2022-11-14T13:30:15;13.70;99.90
16825;DHT22;8529;48.108;-1.706;2022-11-14T13:33:00;13.60;99.90
16825;DHT22;8529;48.108;-1.706;2022-11-14T13:35:55;13.50;99.90
16825;DHT22;8529;48.108;-1.706;2022-11-14T13:42:02;13.50;99.90
16825;DHT22;8529;48.108;-1.706;2022-11-14T13:45:05;13.60;99.90
16825;DHT22;8529;48.108;-1.706;2022-11-14T13:48:10;13.70;99.90
16825;DHT22;8529;48.108;-1.706;2022-11-14T13:50:48;13.60;99.90
16825;DHT22;8529;48.108;-1.706;2022-11-14T13:53:18;13.60;99.90
16825;DHT22;8529;48.108;-1.706;2022-11-14T13:56:11;13.60;99.90
16825;DHT22;8529;48.108;-1.706;2022-11-14T14:01:45;13.70;99.90
16825;DHT22;8529;48.108;-1.706;2022-11-14T14:04:22;13.70;99.90
16825;DHT22;8529;48.108;-1.706;2022-11-14T14:07:04;13.60;99.90
16825;DHT22;8529;48.108;-1.706;2022-11-14T14:09:37;13.50;99.90
16825;DHT22;8529;48.108;-1.706;2022-11-14T14:12:16;13.50;99.90
16825;DHT22;8529;48.108;-1.706;2022-11-14T14:14:59;13.50;99.90
16825;DHT22;8529;48.108;-1.706;2022-11-14T14:17:37;13.50;99.90
16825;DHT22;8529;48.108;-1.706;2022-11-14T14:20:18;13.50;99.90
16825;DHT22;8529;48.108;-1.706;2022-11-14T14:22:52;13.50;99.90
16825;DHT22;8529;48.108;-1.706;2022-11-14T14:25:25;13.60;99.90
16825;DHT22;8529;48.108;-1.706;2022-11-14T14:28:01;13.60;99.90
16825;DHT22;8529;48.108;-1.706;2022-11-14T14:30:31;13.50;99.90
16825;DHT22;8529;48.108;-1.706;2022-11-14T14:33:09;13.50;99.90
16825;DHT22;8529;48.108;-1.706;2022-11-14T14:35:37;13.60;99.90
16825;DHT22;8529;48.108;-1.706;2022-11-14T14:38:10;13.60;99.90
16825;DHT22;8529;48.108;-1.706;2022-11-14T14:40:39;13.60;99.90
16825;DHT22;8529;48.108;-1.706;2022-11-14T14:43:19;13.60;99.90
16825;DHT22;8529;48.108;-1.706;2022-11-14T14:45:51;13.70;99.90
16825;DHT22;8529;48.108;-1.706;2022-11-14T14:48:23;13.70;99.90
16825;DHT22;8529;48.108;-1.706;2022-11-14T14:50:52;13.70;99.90
16825;DHT22;8529;48.108;-1.706;2022-11-14T14:53:21;13.70;99.90
16825;DHT22;8529;48.108;-1.706;2022-11-14T14:55:53;13.70;99.90
16825;DHT22;8529;48.108;-1.706;2022-11-14T14:58:26;13.70;99.90
16825;DHT22;8529;48.108;-1.706;2022-11-14T15:00:56;13.70;99.90
16825;DHT22;8529;48.108;-1.706;2022-11-14T15:03:28;13.60;99.90
16825;DHT22;8529;48.108;-1.706;2022-11-14T15:05:57;13.50;99.90
16825;DHT22;8529;48.108;-1.706;2022-11-14T15:08:25;13.50;99.90
16825;DHT22;8529;48.108;-1.706;2022-11-14T15:10:56;13.50;99.90
16825;DHT22;8529;48.108;-1.706;2022-11-14T15:13:25;13.50;99.90
16825;DHT22;8529;48.108;-1.706;2022-11-14T15:15:53;13.40;99.90
16825;DHT22;8529;48.108;-1.706;2022-11-14T15:18:23;13.40;99.90
16825;DHT22;8529;48.108;-1.706;2022-11-14T15:21:09;13.40;99.90
16825;DHT22;8529;48.108;-1.706;2022-11-14T15:23:37;13.40;99.90
16825;DHT22;8529;48.108;-1.706;2022-11-14T15:26:11;13.40;99.90
16825;DHT22;8529;48.108;-1.706;2022-11-14T15:28:38;13.40;99.90
16825;DHT22;8529;48.108;-1.706;2022-11-14T15:31:11;13.30;99.90
16825;DHT22;8529;48.108;-1.706;2022-11-14T15:33:38;13.30;99.90
16825;DHT22;8529;48.108;-1.706;2022-11-14T15:36:09;13.20;99.90
16825;DHT22;8529;48.108;-1.706;2022-11-14T15:38:36;13.20;99.90
16825;DHT22;8529;48.108;-1.706;2022-11-14T15:41:15;13.20;99.90
16825;DHT22;8529;48.108;-1.706;2022-11-14T15:43:48;13.20;99.90
16825;DHT22;8529;48.108;-1.706;2022-11-14T15:46:39;13.20;99.90
16825;DHT22;8529;48.108;-1.706;2022-11-14T15:49:08;13.20;99.90
16825;DHT22;8529;48.108;-1.706;2022-11-14T15:51:44;13.20;99.90
16825;DHT22;8529;48.108;-1.706;2022-11-14T15:54:24;13.10;99.90
16825;DHT22;8529;48.108;-1.706;2022-11-14T15:56:51;13.10;99.90
16825;DHT22;8529;48.108;-1.706;2022-11-14T15:59:19;13.10;99.90
16825;DHT22;8529;48.108;-1.706;2022-11-14T16:01:49;13.00;99.90
16825;DHT22;8529;48.108;-1.706;2022-11-14T16:04:17;13.00;99.90
16825;DHT22;8529;48.108;-1.706;2022-11-14T16:06:46;13.00;99.90